sensor_id;sensor_type;location;lat;lon;timestamp;P1;durP1;ratioP1;P2;durP2;ratioP2
46651;SDS011;32377;52.182;5.398;2023-07-13T00:00:11;12.27;;;3.20;;
46651;SDS011;32377;52.182;5.398;2023-07-13T00:02:40;15.10;;;2.88;;
46651;SDS011;32377;52.182;5.398;2023-07-13T00:05:06;15.55;;;3.65;;
46651;SDS011;32377;52.182;5.398;2023-07-13T00:07:32;15.73;;;3.10;;
46651;SDS011;32377;52.182;5.398;2023-07-13T00:09:58;11.95;;;2.83;;
46651;SDS011;32377;52.182;5.398;2023-07-13T00:12:27;13.15;;;2.47;;
46651;SDS011;32377;52.182;5.398;2023-07-13T00:14:59;12.38;;;3.42;;
46651;SDS011;32377;52.182;5.398;2023-07-13T00:17:26;16.42;;;3.58;;
46651;SDS011;32377;52.182;5.398;2023-07-13T00:19:53;18.50;;;3.33;;
46651;SDS011;32377;52.182;5.398;2023-07-13T00:22:21;12.48;;;2.83;;
46651;SDS011;32377;52.182;5.398;2023-07-13T00:24:47;18.45;;;3.35;;
46651;SDS011;32377;52.182;5.398;2023-07-13T00:27:12;19.35;;;3.75;;
46651;SDS011;32377;52.182;5.398;2023-07-13T00:29:39;13.45;;;2.67;;
46651;SDS011;32377;52.182;5.398;2023-07-13T00:32:05;11.77;;;3.20;;
46651;SDS011;32377;52.182;5.398;2023-07-13T00:34:32;14.40;;;2.85;;
46651;SDS011;32377;52.182;5.398;2023-07-13T00:36:58;15.38;;;3.15;;
46651;SDS011;32377;52.182;5.398;2023-07-13T00:39:24;13.23;;;3.08;;
46651;SDS011;32377;52.182;5.398;2023-07-13T00:41:50;18.85;;;3.25;;
46651;SDS011;32377;52.182;5.398;2023-07-13T00:44:17;10.63;;;2.72;;
46651;SDS011;32377;52.182;5.398;2023-07-13T00:46:43;13.73;;;3.40;;
46651;SDS011;32377;52.182;5.398;2023-07-13T00:49:11;12.68;;;2.80;;
46651;SDS011;32377;52.182;5.398;2023-07-13T00:51:48;13.05;;;3.08;;
46651;SDS011;32377;52.182;5.398;2023-07-13T00:54:26;14.13;;;3.10;;
46651;SDS011;32377;52.182;5.398;2023-07-13T00:56:56;11.35;;;2.60;;
46651;SDS011;32377;52.182;5.398;2023-07-13T00:59:25;15.63;;;2.95;;
46651;SDS011;32377;52.182;5.398;2023-07-13T01:01:51;14.68;;;3.20;;
46651;SDS011;32377;52.182;5.398;2023-07-13T01:04:18;14.70;;;2.90;;
46651;SDS011;32377;52.182;5.398;2023-07-13T01:06:44;13.77;;;3.40;;
46651;SDS011;32377;52.182;5.398;2023-07-13T01:09:12;13.27;;;3.08;;
46651;SDS011;32377;52.182;5.398;2023-07-13T01:11:39;9.52;;;2.60;;
46651;SDS011;32377;52.182;5.398;2023-07-13T01:14:06;13.98;;;3.17;;
46651;SDS011;32377;52.182;5.398;2023-07-13T01:16:33;20.15;;;3.13;;
46651;SDS011;32377;52.182;5.398;2023-07-13T01:19:01;14.23;;;3.05;;
46651;SDS011;32377;52.182;5.398;2023-07-13T01:21:33;12.93;;;2.90;;
46651;SDS011;32377;52.182;5.398;2023-07-13T01:23:59;12.32;;;3.40;;
46651;SDS011;32377;52.182;5.398;2023-07-13T01:26:27;11.50;;;2.60;;
46651;SDS011;32377;52.182;5.398;2023-07-13T01:28:53;12.48;;;2.85;;
46651;SDS011;32377;52.182;5.398;2023-07-13T01:31:18;12.57;;;2.95;;
46651;SDS011;32377;52.182;5.398;2023-07-13T01:33:44;10.45;;;2.92;;
46651;SDS011;32377;52.182;5.398;2023-07-13T01:36:10;11.60;;;2.85;;
46651;SDS011;32377;52.182;5.398;2023-07-13T01:38:36;13.23;;;3.33;;
46651;SDS011;32377;52.182;5.398;2023-07-13T01:41:02;18.17;;;3.28;;
46651;SDS011;32377;52.182;5.398;2023-07-13T01:43:28;13.55;;;3.08;;
46651;SDS011;32377;52.182;5.398;2023-07-13T01:45:54;16.38;;;2.97;;
46651;SDS011;32377;52.182;5.398;2023-07-13T01:48:20;12.55;;;3.20;;
46651;SDS011;32377;52.182;5.398;2023-07-13T01:50:46;11.20;;;2.45;;
46651;SDS011;32377;52.182;5.398;2023-07-13T01:53:12;19.33;;;3.40;;
46651;SDS011;32377;52.182;5.398;2023-07-13T01:55:38;10.23;;;3.40;;
46651;SDS011;32377;52.182;5.398;2023-07-13T01:58:04;14.10;;;2.80;;
46651;SDS011;32377;52.182;5.398;2023-07-13T02:00:30;12.63;;;2.70;;
46651;SDS011;32377;52.182;5.398;2023-07-13T02:02:56;13.85;;;2.60;;
46651;SDS011;32377;52.182;5.398;2023-07-13T02:05:22;14.55;;;3.60;;
46651;SDS011;32377;52.182;5.398;2023-07-13T02:07:48;11.27;;;3.03;;
46651;SDS011;32377;52.182;5.398;2023-07-13T02:10:14;14.52;;;3.22;;
46651;SDS011;32377;52.182;5.398;2023-07-13T02:12:40;16.55;;;4.25;;
46651;SDS011;32377;52.182;5.398;2023-07-13T02:15:07;13.10;;;3.28;;
46651;SDS011;32377;52.182;5.398;2023-07-13T02:17:34;16.75;;;3.95;;
46651;SDS011;32377;52.182;5.398;2023-07-13T02:20:01;11.65;;;3.42;;
46651;SDS011;32377;52.182;5.398;2023-07-13T02:22:28;15.13;;;3.05;;
46651;SDS011;32377;52.182;5.398;2023-07-13T02:24:54;12.98;;;3.83;;
46651;SDS011;32377;52.182;5.398;2023-07-13T02:27:19;13.25;;;3.72;;
46651;SDS011;32377;52.182;5.398;2023-07-13T02:29:45;12.30;;;3.08;;
46651;SDS011;32377;52.182;5.398;2023-07-13T02:32:11;16.05;;;4.00;;
46651;SDS011;32377;52.182;5.398;2023-07-13T02:34:37;13.77;;;3.80;;
46651;SDS011;32377;52.182;5.398;2023-07-13T02:37:03;14.77;;;3.80;;
46651;SDS011;32377;52.182;5.398;2023-07-13T02:39:29;14.57;;;3.47;;
46651;SDS011;32377;52.182;5.398;2023-07-13T02:41:57;10.95;;;3.80;;
46651;SDS011;32377;52.182;5.398;2023-07-13T02:44:24;16.23;;;3.75;;
46651;SDS011;32377;52.182;5.398;2023-07-13T02:46:50;13.95;;;3.75;;
46651;SDS011;32377;52.182;5.398;2023-07-13T02:49:15;9.15;;;3.40;;
46651;SDS011;32377;52.182;5.398;2023-07-13T02:51:41;15.93;;;3.88;;
46651;SDS011;32377;52.182;5.398;2023-07-13T02:54:07;10.40;;;3.65;;
46651;SDS011;32377;52.182;5.398;2023-07-13T02:56:33;19.30;;;4.35;;
46651;SDS011;32377;52.182;5.398;2023-07-13T02:58:59;18.83;;;4.13;;
46651;SDS011;32377;52.182;5.398;2023-07-13T03:01:25;14.80;;;3.75;;
46651;SDS011;32377;52.182;5.398;2023-07-13T03:03:51;13.10;;;4.20;;
46651;SDS011;32377;52.182;5.398;2023-07-13T03:06:17;11.93;;;3.90;;
46651;SDS011;32377;52.182;5.398;2023-07-13T03:08:44;15.80;;;4.28;;
46651;SDS011;32377;52.182;5.398;2023-07-13T03:11:12;10.30;;;3.45;;
46651;SDS011;32377;52.182;5.398;2023-07-13T03:13:40;16.48;;;5.60;;
46651;SDS011;32377;52.182;5.398;2023-07-13T03:16:07;17.35;;;4.22;;
46651;SDS011;32377;52.182;5.398;2023-07-13T03:18:34;14.13;;;4.35;;
46651;SDS011;32377;52.182;5.398;2023-07-13T03:21:01;16.50;;;4.00;;
46651;SDS011;32377;52.182;5.398;2023-07-13T03:23:27;21.13;;;5.25;;
46651;SDS011;32377;52.182;5.398;2023-07-13T03:26:00;14.82;;;4.68;;
46651;SDS011;32377;52.182;5.398;2023-07-13T03:28:33;20.40;;;4.68;;
46651;SDS011;32377;52.182;5.398;2023-07-13T03:31:00;25.02;;;4.72;;
46651;SDS011;32377;52.182;5.398;2023-07-13T03:33:46;17.35;;;4.82;;
46651;SDS011;32377;52.182;5.398;2023-07-13T03:36:14;15.13;;;3.83;;
46651;SDS011;32377;52.182;5.398;2023-07-13T03:38:44;25.25;;;5.57;;
46651;SDS011;32377;52.182;5.398;2023-07-13T03:41:18;18.52;;;4.88;;
46651;SDS011;32377;52.182;5.398;2023-07-13T03:43:44;23.25;;;4.65;;
46651;SDS011;32377;52.182;5.398;2023-07-13T03:46:10;15.73;;;4.45;;
46651;SDS011;32377;52.182;5.398;2023-07-13T03:48:36;16.00;;;4.50;;
46651;SDS011;32377;52.182;5.398;2023-07-13T03:51:02;18.73;;;4.10;;
46651;SDS011;32377;52.182;5.398;2023-07-13T03:53:27;19.60;;;4.28;;
46651;SDS011;32377;52.182;5.398;2023-07-13T03:58:55;15.13;;;4.78;;
46651;SDS011;32377;52.182;5.398;2023-07-13T04:01:21;18.98;;;4.70;;
46651;SDS011;32377;52.182;5.398;2023-07-13T04:03:48;17.65;;;4.47;;
46651;SDS011;32377;52.182;5.398;2023-07-13T04:06:18;17.85;;;4.95;;
46651;SDS011;32377;52.182;5.398;2023-07-13T04:08:46;19.20;;;4.63;;
46651;SDS011;32377;52.182;5.398;2023-07-13T04:11:14;17.05;;;4.70;;
46651;SDS011;32377;52.182;5.398;2023-07-13T04:13:40;13.57;;;4.30;;
46651;SDS011;32377;52.182;5.398;2023-07-13T04:16:05;18.50;;;4.80;;
46651;SDS011;32377;52.182;5.398;2023-07-13T04:18:31;17.40;;;5.63;;
46651;SDS011;32377;52.182;5.398;2023-07-13T04:20:57;18.73;;;5.00;;
46651;SDS011;32377;52.182;5.398;2023-07-13T04:23:23;17.40;;;4.78;;
46651;SDS011;32377;52.182;5.398;2023-07-13T04:25:49;18.77;;;5.40;;
46651;SDS011;32377;52.182;5.398;2023-07-13T04:28:18;23.48;;;6.90;;
46651;SDS011;32377;52.182;5.398;2023-07-13T04:30:48;22.33;;;4.82;;
46651;SDS011;32377;52.182;5.398;2023-07-13T04:33:14;18.50;;;6.00;;
46651;SDS011;32377;52.182;5.398;2023-07-13T04:35:41;15.98;;;5.10;;
46651;SDS011;32377;52.182;5.398;2023-07-13T04:38:07;25.55;;;6.05;;
46651;SDS011;32377;52.182;5.398;2023-07-13T04:40:36;18.40;;;6.10;;
46651;SDS011;32377;52.182;5.398;2023-07-13T04:43:02;20.85;;;6.22;;
46651;SDS011;32377;52.182;5.398;2023-07-13T04:45:28;22.90;;;6.38;;
46651;SDS011;32377;52.182;5.398;2023-07-13T04:47:54;31.23;;;6.72;;
46651;SDS011;32377;52.182;5.398;2023-07-13T04:50:20;28.73;;;6.80;;
46651;SDS011;32377;52.182;5.398;2023-07-13T04:52:48;25.90;;;6.47;;
46651;SDS011;32377;52.182;5.398;2023-07-13T04:55:15;32.58;;;7.55;;
46651;SDS011;32377;52.182;5.398;2023-07-13T04:57:41;25.33;;;7.07;;
46651;SDS011;32377;52.182;5.398;2023-07-13T05:00:07;25.73;;;7.18;;
46651;SDS011;32377;52.182;5.398;2023-07-13T05:02:34;27.40;;;8.40;;
46651;SDS011;32377;52.182;5.398;2023-07-13T05:05:00;26.25;;;7.28;;
46651;SDS011;32377;52.182;5.398;2023-07-13T05:07:26;31.55;;;7.95;;
46651;SDS011;32377;52.182;5.398;2023-07-13T05:09:52;35.58;;;8.55;;
46651;SDS011;32377;52.182;5.398;2023-07-13T05:12:18;34.92;;;8.05;;
46651;SDS011;32377;52.182;5.398;2023-07-13T05:14:44;25.92;;;8.77;;
46651;SDS011;32377;52.182;5.398;2023-07-13T05:17:09;24.80;;;7.88;;
46651;SDS011;32377;52.182;5.398;2023-07-13T05:19:36;28.90;;;8.60;;
46651;SDS011;32377;52.182;5.398;2023-07-13T05:22:02;26.92;;;9.13;;
46651;SDS011;32377;52.182;5.398;2023-07-13T05:24:29;33.72;;;8.90;;
46651;SDS011;32377;52.182;5.398;2023-07-13T05:26:55;32.35;;;9.43;;
46651;SDS011;32377;52.182;5.398;2023-07-13T05:29:21;31.27;;;8.23;;
46651;SDS011;32377;52.182;5.398;2023-07-13T05:31:48;32.38;;;9.75;;
46651;SDS011;32377;52.182;5.398;2023-07-13T05:34:14;26.30;;;8.90;;
46651;SDS011;32377;52.182;5.398;2023-07-13T05:36:40;33.47;;;11.05;;
46651;SDS011;32377;52.182;5.398;2023-07-13T05:39:06;30.40;;;9.48;;
46651;SDS011;32377;52.182;5.398;2023-07-13T05:41:32;26.65;;;9.23;;
46651;SDS011;32377;52.182;5.398;2023-07-13T05:43:58;25.40;;;8.85;;
46651;SDS011;32377;52.182;5.398;2023-07-13T05:46:24;29.50;;;8.95;;
46651;SDS011;32377;52.182;5.398;2023-07-13T05:48:50;32.35;;;8.88;;
46651;SDS011;32377;52.182;5.398;2023-07-13T05:51:15;19.80;;;8.27;;
46651;SDS011;32377;52.182;5.398;2023-07-13T05:53:41;26.60;;;9.45;;
46651;SDS011;32377;52.182;5.398;2023-07-13T05:56:07;25.33;;;8.52;;
46651;SDS011;32377;52.182;5.398;2023-07-13T05:58:32;29.92;;;9.60;;
46651;SDS011;32377;52.182;5.398;2023-07-13T06:00:59;28.15;;;9.13;;
46651;SDS011;32377;52.182;5.398;2023-07-13T06:03:28;25.30;;;10.10;;
46651;SDS011;32377;52.182;5.398;2023-07-13T06:05:54;25.58;;;9.38;;
46651;SDS011;32377;52.182;5.398;2023-07-13T06:08:20;26.83;;;9.73;;
46651;SDS011;32377;52.182;5.398;2023-07-13T06:10:46;27.10;;;10.48;;
46651;SDS011;32377;52.182;5.398;2023-07-13T06:13:11;24.23;;;9.75;;
46651;SDS011;32377;52.182;5.398;2023-07-13T06:15:37;22.38;;;9.48;;
46651;SDS011;32377;52.182;5.398;2023-07-13T06:18:03;23.20;;;9.75;;
46651;SDS011;32377;52.182;5.398;2023-07-13T06:20:28;25.90;;;9.45;;
46651;SDS011;32377;52.182;5.398;2023-07-13T06:22:54;30.73;;;9.50;;
46651;SDS011;32377;52.182;5.398;2023-07-13T06:25:20;19.02;;;8.63;;
46651;SDS011;32377;52.182;5.398;2023-07-13T06:27:46;22.20;;;8.88;;
46651;SDS011;32377;52.182;5.398;2023-07-13T06:30:12;22.90;;;10.30;;
46651;SDS011;32377;52.182;5.398;2023-07-13T06:32:38;24.63;;;9.20;;
46651;SDS011;32377;52.182;5.398;2023-07-13T06:35:03;25.88;;;9.95;;
46651;SDS011;32377;52.182;5.398;2023-07-13T06:37:30;23.73;;;9.13;;
46651;SDS011;32377;52.182;5.398;2023-07-13T06:39:55;27.13;;;8.63;;
46651;SDS011;32377;52.182;5.398;2023-07-13T06:42:21;25.30;;;9.20;;
46651;SDS011;32377;52.182;5.398;2023-07-13T06:44:47;25.98;;;10.52;;
46651;SDS011;32377;52.182;5.398;2023-07-13T06:47:12;25.20;;;9.18;;
46651;SDS011;32377;52.182;5.398;2023-07-13T06:49:38;30.05;;;8.80;;
46651;SDS011;32377;52.182;5.398;2023-07-13T06:52:04;29.63;;;9.50;;
46651;SDS011;32377;52.182;5.398;2023-07-13T06:54:30;32.53;;;9.10;;
46651;SDS011;32377;52.182;5.398;2023-07-13T06:56:55;23.15;;;8.27;;
46651;SDS011;32377;52.182;5.398;2023-07-13T06:59:21;25.40;;;8.63;;
46651;SDS011;32377;52.182;5.398;2023-07-13T07:01:47;28.20;;;9.68;;
46651;SDS011;32377;52.182;5.398;2023-07-13T07:04:12;19.85;;;8.38;;
46651;SDS011;32377;52.182;5.398;2023-07-13T07:06:38;26.42;;;9.13;;
46651;SDS011;32377;52.182;5.398;2023-07-13T07:09:04;33.03;;;10.15;;
46651;SDS011;32377;52.182;5.398;2023-07-13T07:11:29;19.05;;;8.63;;
46651;SDS011;32377;52.182;5.398;2023-07-13T07:13:55;30.23;;;8.90;;
46651;SDS011;32377;52.182;5.398;2023-07-13T07:16:21;28.63;;;9.50;;
46651;SDS011;32377;52.182;5.398;2023-07-13T07:18:47;23.40;;;8.30;;
46651;SDS011;32377;52.182;5.398;2023-07-13T07:21:13;27.00;;;9.93;;
46651;SDS011;32377;52.182;5.398;2023-07-13T07:23:40;25.65;;;9.10;;
46651;SDS011;32377;52.182;5.398;2023-07-13T07:26:06;19.15;;;9.68;;
46651;SDS011;32377;52.182;5.398;2023-07-13T07:28:33;28.73;;;11.23;;
46651;SDS011;32377;52.182;5.398;2023-07-13T07:30:59;30.25;;;12.82;;
46651;SDS011;32377;52.182;5.398;2023-07-13T07:33:25;22.65;;;11.07;;
46651;SDS011;32377;52.182;5.398;2023-07-13T07:35:51;25.83;;;12.15;;
46651;SDS011;32377;52.182;5.398;2023-07-13T07:38:17;24.48;;;11.13;;
46651;SDS011;32377;52.182;5.398;2023-07-13T07:40:43;22.60;;;11.68;;
46651;SDS011;32377;52.182;5.398;2023-07-13T07:43:10;16.77;;;10.18;;
46651;SDS011;32377;52.182;5.398;2023-07-13T07:45:36;25.25;;;11.40;;
46651;SDS011;32377;52.182;5.398;2023-07-13T07:48:03;19.60;;;9.10;;
46651;SDS011;32377;52.182;5.398;2023-07-13T07:50:30;26.38;;;9.25;;
46651;SDS011;32377;52.182;5.398;2023-07-13T07:52:56;20.50;;;8.95;;
46651;SDS011;32377;52.182;5.398;2023-07-13T07:55:22;19.13;;;9.43;;
46651;SDS011;32377;52.182;5.398;2023-07-13T07:57:48;22.80;;;9.80;;
46651;SDS011;32377;52.182;5.398;2023-07-13T08:00:15;22.48;;;10.82;;
46651;SDS011;32377;52.182;5.398;2023-07-13T08:02:41;24.23;;;11.05;;
46651;SDS011;32377;52.182;5.398;2023-07-13T08:05:08;26.88;;;12.73;;
46651;SDS011;32377;52.182;5.398;2023-07-13T08:07:34;26.20;;;13.40;;
46651;SDS011;32377;52.182;5.398;2023-07-13T08:10:01;31.45;;;14.75;;
46651;SDS011;32377;52.182;5.398;2023-07-13T08:12:27;32.60;;;13.93;;
46651;SDS011;32377;52.182;5.398;2023-07-13T08:14:53;27.80;;;13.48;;
46651;SDS011;32377;52.182;5.398;2023-07-13T08:17:21;28.33;;;12.23;;
46651;SDS011;32377;52.182;5.398;2023-07-13T08:19:48;23.20;;;12.00;;
46651;SDS011;32377;52.182;5.398;2023-07-13T08:22:13;25.73;;;11.68;;
46651;SDS011;32377;52.182;5.398;2023-07-13T08:24:40;19.02;;;9.52;;
46651;SDS011;32377;52.182;5.398;2023-07-13T08:27:07;17.85;;;8.02;;
46651;SDS011;32377;52.182;5.398;2023-07-13T08:29:33;19.40;;;6.60;;
46651;SDS011;32377;52.182;5.398;2023-07-13T08:31:59;21.08;;;7.70;;
46651;SDS011;32377;52.182;5.398;2023-07-13T08:34:25;17.75;;;7.38;;
46651;SDS011;32377;52.182;5.398;2023-07-13T08:36:51;15.32;;;6.65;;
46651;SDS011;32377;52.182;5.398;2023-07-13T08:39:16;15.38;;;6.45;;
46651;SDS011;32377;52.182;5.398;2023-07-13T08:41:44;18.65;;;7.30;;
46651;SDS011;32377;52.182;5.398;2023-07-13T08:44:30;18.27;;;6.20;;
46651;SDS011;32377;52.182;5.398;2023-07-13T08:47:18;14.35;;;6.38;;
46651;SDS011;32377;52.182;5.398;2023-07-13T08:49:47;21.40;;;6.93;;
46651;SDS011;32377;52.182;5.398;2023-07-13T08:52:18;15.02;;;6.18;;
46651;SDS011;32377;52.182;5.398;2023-07-13T08:54:58;8.40;;;3.95;;
46651;SDS011;32377;52.182;5.398;2023-07-13T08:57:31;8.38;;;3.45;;
46651;SDS011;32377;52.182;5.398;2023-07-13T08:59:59;6.55;;;3.17;;
46651;SDS011;32377;52.182;5.398;2023-07-13T09:05:26;5.53;;;3.10;;
46651;SDS011;32377;52.182;5.398;2023-07-13T09:08:10;7.20;;;2.72;;
46651;SDS011;32377;52.182;5.398;2023-07-13T09:13:52;10.50;;;3.40;;
46651;SDS011;32377;52.182;5.398;2023-07-13T09:16:23;6.50;;;3.28;;
46651;SDS011;32377;52.182;5.398;2023-07-13T09:18:50;6.28;;;2.95;;
46651;SDS011;32377;52.182;5.398;2023-07-13T09:21:23;5.95;;;2.90;;
46651;SDS011;32377;52.182;5.398;2023-07-13T09:23:54;6.30;;;2.83;;
46651;SDS011;32377;52.182;5.398;2023-07-13T09:26:25;9.32;;;3.30;;
46651;SDS011;32377;52.182;5.398;2023-07-13T09:28:57;9.77;;;3.80;;
46651;SDS011;32377;52.182;5.398;2023-07-13T09:31:52;8.45;;;3.13;;
46651;SDS011;32377;52.182;5.398;2023-07-13T09:34:20;10.75;;;3.58;;
46651;SDS011;32377;52.182;5.398;2023-07-13T09:36:46;10.23;;;4.10;;
46651;SDS011;32377;52.182;5.398;2023-07-13T09:42:07;12.38;;;4.88;;
46651;SDS011;32377;52.182;5.398;2023-07-13T09:44:51;8.68;;;4.60;;
46651;SDS011;32377;52.182;5.398;2023-07-13T09:47:21;14.10;;;4.85;;
46651;SDS011;32377;52.182;5.398;2023-07-13T09:49:58;15.02;;;5.85;;
46651;SDS011;32377;52.182;5.398;2023-07-13T09:52:25;13.65;;;6.07;;
46651;SDS011;32377;52.182;5.398;2023-07-13T09:54:53;13.93;;;7.22;;
46651;SDS011;32377;52.182;5.398;2023-07-13T09:58:51;11.38;;;6.20;;
46651;SDS011;32377;52.182;5.398;2023-07-13T10:01:30;12.30;;;5.15;;
46651;SDS011;32377;52.182;5.398;2023-07-13T10:04:02;9.18;;;4.75;;
46651;SDS011;32377;52.182;5.398;2023-07-13T10:06:37;8.45;;;4.50;;
46651;SDS011;32377;52.182;5.398;2023-07-13T10:09:07;10.38;;;5.35;;
46651;SDS011;32377;52.182;5.398;2023-07-13T10:11:34;10.07;;;4.00;;
46651;SDS011;32377;52.182;5.398;2023-07-13T10:14:03;7.30;;;3.80;;
46651;SDS011;32377;52.182;5.398;2023-07-13T10:16:37;9.73;;;3.40;;
46651;SDS011;32377;52.182;5.398;2023-07-13T10:21:38;8.75;;;3.55;;
46651;SDS011;32377;52.182;5.398;2023-07-13T10:24:24;10.10;;;4.03;;
46651;SDS011;32377;52.182;5.398;2023-07-13T10:29:55;5.65;;;3.33;;
46651;SDS011;32377;52.182;5.398;2023-07-13T10:32:34;8.00;;;3.80;;
46651;SDS011;32377;52.182;5.398;2023-07-13T10:35:00;10.85;;;4.00;;
46651;SDS011;32377;52.182;5.398;2023-07-13T10:37:34;10.32;;;4.50;;
46651;SDS011;32377;52.182;5.398;2023-07-13T10:40:13;11.73;;;4.95;;
46651;SDS011;32377;52.182;5.398;2023-07-13T10:42:44;12.32;;;4.35;;
46651;SDS011;32377;52.182;5.398;2023-07-13T10:45:15;14.30;;;4.85;;
46651;SDS011;32377;52.182;5.398;2023-07-13T10:47:44;10.10;;;3.70;;
46651;SDS011;32377;52.182;5.398;2023-07-13T10:50:18;7.88;;;3.90;;
46651;SDS011;32377;52.182;5.398;2023-07-13T10:52:47;9.82;;;3.97;;
46651;SDS011;32377;52.182;5.398;2023-07-13T10:58:12;10.77;;;4.43;;
46651;SDS011;32377;52.182;5.398;2023-07-13T11:03:28;10.45;;;4.05;;
46651;SDS011;32377;52.182;5.398;2023-07-13T11:06:07;11.68;;;4.45;;
46651;SDS011;32377;52.182;5.398;2023-07-13T11:08:54;14.32;;;5.63;;
46651;SDS011;32377;52.182;5.398;2023-07-13T11:18:45;10.98;;;5.85;;
46651;SDS011;32377;52.182;5.398;2023-07-13T11:21:20;16.23;;;6.72;;
46651;SDS011;32377;52.182;5.398;2023-07-13T11:23:54;12.90;;;6.38;;
46651;SDS011;32377;52.182;5.398;2023-07-13T11:31:40;14.98;;;5.80;;
46651;SDS011;32377;52.182;5.398;2023-07-13T11:34:11;11.60;;;5.55;;
46651;SDS011;32377;52.182;5.398;2023-07-13T11:36:42;12.55;;;6.47;;
46651;SDS011;32377;52.182;5.398;2023-07-13T11:39:21;11.52;;;5.75;;
46651;SDS011;32377;52.182;5.398;2023-07-13T11:42:02;15.43;;;5.70;;
46651;SDS011;32377;52.182;5.398;2023-07-13T11:44:32;13.40;;;6.13;;
46651;SDS011;32377;52.182;5.398;2023-07-13T11:47:10;12.43;;;5.65;;
46651;SDS011;32377;52.182;5.398;2023-07-13T11:49:47;10.48;;;5.28;;
46651;SDS011;32377;52.182;5.398;2023-07-13T11:52:15;9.98;;;5.32;;
46651;SDS011;32377;52.182;5.398;2023-07-13T11:54:50;10.73;;;5.20;;
46651;SDS011;32377;52.182;5.398;2023-07-13T11:57:25;14.45;;;5.57;;
46651;SDS011;32377;52.182;5.398;2023-07-13T12:00:01;11.98;;;5.43;;
46651;SDS011;32377;52.182;5.398;2023-07-13T12:02:32;11.27;;;4.78;;
46651;SDS011;32377;52.182;5.398;2023-07-13T12:05:01;15.15;;;4.68;;
46651;SDS011;32377;52.182;5.398;2023-07-13T12:07:30;12.00;;;5.00;;
46651;SDS011;32377;52.182;5.398;2023-07-13T12:10:10;8.00;;;3.90;;
46651;SDS011;32377;52.182;5.398;2023-07-13T12:12:59;9.85;;;4.25;;
46651;SDS011;32377;52.182;5.398;2023-07-13T12:15:34;9.35;;;4.28;;
46651;SDS011;32377;52.182;5.398;2023-07-13T12:18:37;9.40;;;4.70;;
46651;SDS011;32377;52.182;5.398;2023-07-13T12:20:57;8.95;;;4.45;;
46651;SDS011;32377;52.182;5.398;2023-07-13T12:25:58;13.25;;;3.80;;
46651;SDS011;32377;52.182;5.398;2023-07-13T12:31:04;8.67;;;3.87;;
46651;SDS011;32377;52.182;5.398;2023-07-13T12:33:32;9.30;;;3.67;;
46651;SDS011;32377;52.182;5.398;2023-07-13T12:36:03;7.00;;;3.25;;
46651;SDS011;32377;52.182;5.398;2023-07-13T12:38:31;14.23;;;3.60;;
46651;SDS011;32377;52.182;5.398;2023-07-13T12:40:57;10.18;;;3.60;;
46651;SDS011;32377;52.182;5.398;2023-07-13T12:43:24;9.32;;;3.67;;
46651;SDS011;32377;52.182;5.398;2023-07-13T12:46:01;10.73;;;3.25;;
46651;SDS011;32377;52.182;5.398;2023-07-13T12:48:28;7.43;;;3.45;;
46651;SDS011;32377;52.182;5.398;2023-07-13T12:50:55;7.82;;;3.30;;
46651;SDS011;32377;52.182;5.398;2023-07-13T12:53:29;8.13;;;3.28;;
46651;SDS011;32377;52.182;5.398;2023-07-13T12:56:01;8.50;;;2.72;;
46651;SDS011;32377;52.182;5.398;2023-07-13T13:00:54;10.80;;;3.22;;
46651;SDS011;32377;52.182;5.398;2023-07-13T13:03:32;5.28;;;2.85;;
46651;SDS011;32377;52.182;5.398;2023-07-13T13:06:17;6.35;;;3.15;;
46651;SDS011;32377;52.182;5.398;2023-07-13T13:08:53;9.65;;;2.90;;
46651;SDS011;32377;52.182;5.398;2023-07-13T13:11:22;10.25;;;3.45;;
46651;SDS011;32377;52.182;5.398;2023-07-13T13:13:49;8.82;;;2.92;;
46651;SDS011;32377;52.182;5.398;2023-07-13T13:19:13;5.95;;;2.72;;
46651;SDS011;32377;52.182;5.398;2023-07-13T13:21:45;6.60;;;3.00;;
46651;SDS011;32377;52.182;5.398;2023-07-13T13:24:12;6.45;;;3.40;;
46651;SDS011;32377;52.182;5.398;2023-07-13T13:26:42;6.53;;;3.30;;
46651;SDS011;32377;52.182;5.398;2023-07-13T13:29:14;6.75;;;3.50;;
46651;SDS011;32377;52.182;5.398;2023-07-13T13:31:45;5.20;;;3.28;;
46651;SDS011;32377;52.182;5.398;2023-07-13T13:34:12;5.40;;;2.80;;
46651;SDS011;32377;52.182;5.398;2023-07-13T13:36:39;7.35;;;3.42;;
46651;SDS011;32377;52.182;5.398;2023-07-13T13:39:22;9.82;;;3.65;;
46651;SDS011;32377;52.182;5.398;2023-07-13T13:41:50;6.47;;;3.15;;
46651;SDS011;32377;52.182;5.398;2023-07-13T13:44:17;7.53;;;3.20;;
46651;SDS011;32377;52.182;5.398;2023-07-13T13:46:48;8.88;;;3.40;;
46651;SDS011;32377;52.182;5.398;2023-07-13T13:49:17;9.68;;;3.08;;
46651;SDS011;32377;52.182;5.398;2023-07-13T13:51:46;10.35;;;3.50;;
46651;SDS011;32377;52.182;5.398;2023-07-13T13:54:14;7.03;;;3.45;;
46651;SDS011;32377;52.182;5.398;2023-07-13T13:56:41;7.60;;;3.35;;
46651;SDS011;32377;52.182;5.398;2023-07-13T13:59:12;7.40;;;3.40;;
46651;SDS011;32377;52.182;5.398;2023-07-13T14:01:38;7.93;;;3.35;;
46651;SDS011;32377;52.182;5.398;2023-07-13T14:04:05;8.20;;;3.13;;
46651;SDS011;32377;52.182;5.398;2023-07-13T14:06:34;8.13;;;3.40;;
46651;SDS011;32377;52.182;5.398;2023-07-13T14:09:00;9.38;;;3.30;;
46651;SDS011;32377;52.182;5.398;2023-07-13T14:11:28;8.82;;;3.40;;
46651;SDS011;32377;52.182;5.398;2023-07-13T14:13:57;4.93;;;2.83;;
46651;SDS011;32377;52.182;5.398;2023-07-13T14:16:28;8.98;;;3.50;;
46651;SDS011;32377;52.182;5.398;2023-07-13T14:18:59;7.03;;;3.47;;
46651;SDS011;32377;52.182;5.398;2023-07-13T14:21:25;8.38;;;3.20;;
46651;SDS011;32377;52.182;5.398;2023-07-13T14:23:53;9.25;;;3.13;;
46651;SDS011;32377;52.182;5.398;2023-07-13T14:26:20;6.75;;;3.38;;
46651;SDS011;32377;52.182;5.398;2023-07-13T14:28:49;7.88;;;3.03;;
46651;SDS011;32377;52.182;5.398;2023-07-13T14:31:17;5.75;;;3.20;;
46651;SDS011;32377;52.182;5.398;2023-07-13T14:33:44;11.02;;;3.10;;
46651;SDS011;32377;52.182;5.398;2023-07-13T14:36:52;7.05;;;2.80;;
46651;SDS011;32377;52.182;5.398;2023-07-13T14:39:14;5.68;;;2.60;;
46651;SDS011;32377;52.182;5.398;2023-07-13T14:41:43;7.80;;;3.10;;
46651;SDS011;32377;52.182;5.398;2023-07-13T14:44:12;4.43;;;2.30;;
46651;SDS011;32377;52.182;5.398;2023-07-13T14:46:40;6.78;;;2.60;;
46651;SDS011;32377;52.182;5.398;2023-07-13T14:49:20;6.45;;;2.40;;
46651;SDS011;32377;52.182;5.398;2023-07-13T14:51:56;6.50;;;2.90;;
46651;SDS011;32377;52.182;5.398;2023-07-13T14:54:25;8.48;;;2.80;;
46651;SDS011;32377;52.182;5.398;2023-07-13T14:56:51;5.75;;;2.47;;
46651;SDS011;32377;52.182;5.398;2023-07-13T14:59:16;6.57;;;3.05;;
46651;SDS011;32377;52.182;5.398;2023-07-13T15:01:46;6.00;;;2.80;;
46651;SDS011;32377;52.182;5.398;2023-07-13T15:04:13;7.15;;;2.67;;
46651;SDS011;32377;52.182;5.398;2023-07-13T15:06:55;5.10;;;2.90;;
46651;SDS011;32377;52.182;5.398;2023-07-13T15:09:24;8.88;;;2.63;;
46651;SDS011;32377;52.182;5.398;2023-07-13T15:11:51;7.43;;;2.80;;
46651;SDS011;32377;52.182;5.398;2023-07-13T15:14:21;10.45;;;3.10;;
46651;SDS011;32377;52.182;5.398;2023-07-13T15:16:48;6.32;;;2.67;;
46651;SDS011;32377;52.182;5.398;2023-07-13T15:19:16;6.53;;;2.65;;
46651;SDS011;32377;52.182;5.398;2023-07-13T15:21:43;5.43;;;2.53;;
46651;SDS011;32377;52.182;5.398;2023-07-13T15:24:10;6.97;;;2.78;;
46651;SDS011;32377;52.182;5.398;2023-07-13T15:26:36;6.57;;;2.60;;
46651;SDS011;32377;52.182;5.398;2023-07-13T15:29:03;6.88;;;2.40;;
46651;SDS011;32377;52.182;5.398;2023-07-13T15:31:29;6.22;;;2.60;;
46651;SDS011;32377;52.182;5.398;2023-07-13T15:33:57;9.15;;;2.58;;